createdAt,value
2019-01-17T00:00:36.073Z,33.58
2019-01-17T00:05:45.361Z,29.85
2019-01-17T00:10:54.545Z,32.53
2019-01-17T00:16:03.797Z,30.96
2019-01-17T00:21:12.909Z,31.43
2019-01-17T00:26:22.101Z,30.98
2019-01-17T00:31:31.641Z,29.38
2019-01-17T00:36:40.701Z,29.82
2019-01-17T00:41:49.980Z,30.75
2019-01-17T00:46:59.056Z,29.85
2019-01-17T00:52:08.330Z,32.62
2019-01-17T00:57:17.710Z,31.72
2019-01-17T01:02:26.903Z,32.55
2019-01-17T01:07:36.055Z,32.16
2019-01-17T01:12:45.254Z,29.23
2019-01-17T01:17:54.405Z,29.92
2019-01-17T01:23:03.700Z,29.29
2019-01-17T01:28:12.912Z,25.42
2019-01-17T01:33:22.126Z,26.28
2019-01-17T01:38:31.252Z,26.11
2019-01-17T01:43:40.396Z,25.83
2019-01-17T01:48:49.582Z,23.52
2019-01-17T01:53:58.783Z,21.67
2019-01-17T01:59:07.845Z,21.93
2019-01-17T02:04:17.185Z,19.79
2019-01-17T02:09:26.321Z,19.85
2019-01-17T02:14:35.595Z,19.65
2019-01-17T02:19:44.677Z,18.53
2019-01-17T02:24:53.973Z,16.43
2019-01-17T02:30:03.077Z,16.73
2019-01-17T02:35:13.954Z,16.91
2019-01-17T02:40:12.993Z,13.98
2019-01-17T02:45:22.201Z,10.50
2019-01-17T02:50:31.590Z,8.29
2019-01-17T02:55:40.778Z,7.38
2019-01-17T03:00:49.921Z,7.45
2019-01-17T03:05:59.142Z,7.95
2019-01-17T03:11:08.598Z,7.91
2019-01-17T03:16:17.791Z,7.35
2019-01-17T03:21:26.873Z,6.87
2019-01-17T03:26:36.097Z,6.64
2019-01-17T03:31:45.203Z,5.43
2019-01-17T03:36:54.545Z,4.58
2019-01-17T03:42:03.617Z,4.21
2019-01-17T03:47:12.833Z,5.38
2019-01-17T03:52:22.106Z,4.92
2019-01-17T03:57:31.457Z,4.86
2019-01-17T04:02:40.700Z,4.45
2019-01-17T04:07:49.937Z,4.95
2019-01-17T04:12:59.013Z,4.71
2019-01-17T04:18:08.361Z,5.33
2019-01-17T04:23:17.609Z,5.00
2019-01-17T04:28:26.985Z,5.32
2019-01-17T04:33:36.413Z,5.28
2019-01-17T04:38:45.821Z,5.69
2019-01-17T04:43:54.968Z,5.60
2019-01-17T04:49:04.341Z,6.15
2019-01-17T04:54:13.410Z,6.30
2019-01-17T04:59:22.642Z,6.22
2019-01-17T05:04:31.745Z,8.90
2019-01-17T05:09:41.372Z,7.78
2019-01-17T05:14:50.465Z,7.74
2019-01-17T05:19:59.626Z,8.56
2019-01-17T05:25:12.601Z,8.02
2019-01-17T05:30:17.482Z,7.76
2019-01-17T05:35:26.573Z,10.01
2019-01-17T05:40:35.797Z,8.13
2019-01-17T05:45:45.338Z,10.07
2019-01-17T05:50:54.517Z,9.69
2019-01-17T05:56:03.821Z,8.94
2019-01-17T06:01:13.036Z,9.21
2019-01-17T06:06:22.100Z,8.48
2019-01-17T06:11:31.304Z,10.59
2019-01-17T06:16:40.372Z,10.16
2019-01-17T06:21:49.505Z,9.79
2019-01-17T06:26:58.809Z,10.32
2019-01-17T06:32:07.929Z,11.47
2019-01-17T06:37:17.009Z,11.89
2019-01-17T06:42:26.358Z,12.97
2019-01-17T06:47:35.449Z,10.44
2019-01-17T06:52:44.598Z,14.05
2019-01-17T06:57:53.709Z,12.20
2019-01-17T07:03:02.885Z,10.19
2019-01-17T07:08:11.969Z,13.83
2019-01-17T07:13:21.146Z,14.00
2019-01-17T07:18:30.230Z,12.85
2019-01-17T07:23:39.376Z,11.58
2019-01-17T07:28:48.457Z,12.08
2019-01-17T07:33:57.578Z,13.78
2019-01-17T07:39:06.652Z,12.02
2019-01-17T07:44:15.769Z,12.03
2019-01-17T07:49:24.866Z,14.80
2019-01-17T07:54:34.021Z,14.19
2019-01-17T07:59:43.121Z,12.44
2019-01-17T08:04:52.240Z,14.64
2019-01-17T08:10:01.309Z,15.87
2019-01-17T08:15:10.453Z,11.65
2019-01-17T08:20:19.538Z,11.35
2019-01-17T08:25:28.657Z,12.37
2019-01-17T08:30:37.755Z,10.90
2019-01-17T08:35:46.869Z,12.03
2019-01-17T08:40:55.936Z,15.59
2019-01-17T08:46:05.057Z,12.37
2019-01-17T08:51:14.139Z,14.76
2019-01-17T08:56:23.249Z,11.75
2019-01-17T09:01:34.002Z,13.29
2019-01-17T09:06:33.109Z,14.44
2019-01-17T09:11:42.198Z,14.09
2019-01-17T09:16:51.308Z,14.45
2019-01-17T09:22:00.428Z,14.87
2019-01-17T09:27:09.591Z,12.96
2019-01-17T09:32:18.688Z,12.89
2019-01-17T09:37:27.837Z,12.62
2019-01-17T09:42:36.946Z,11.86
2019-01-17T09:47:46.133Z,14.88
2019-01-17T09:52:55.228Z,10.99
2019-01-17T09:58:04.377Z,12.18
2019-01-17T10:03:13.506Z,11.45
2019-01-17T10:08:22.716Z,11.65
2019-01-17T10:13:32.116Z,10.98
2019-01-17T10:18:40.452Z,10.80
2019-01-17T10:23:49.529Z,13.10
2019-01-17T10:28:59.971Z,13.88
2019-01-17T10:34:07.301Z,10.63
2019-01-17T10:39:16.497Z,11.54
2019-01-17T10:44:25.525Z,13.18
2019-01-17T10:49:34.716Z,11.02
2019-01-17T10:54:43.782Z,9.91
2019-01-17T10:59:52.905Z,12.35
2019-01-17T11:05:01.967Z,13.12
2019-01-17T11:10:11.117Z,14.85
2019-01-17T11:15:20.212Z,11.93
2019-01-17T11:20:29.368Z,11.99
2019-01-17T11:25:38.530Z,9.36
2019-01-17T11:30:47.640Z,9.70
2019-01-17T11:35:56.729Z,11.14
2019-01-17T11:41:05.882Z,12.39
2019-01-17T11:46:14.980Z,11.03
2019-01-17T11:51:24.432Z,10.27
2019-01-17T11:56:33.538Z,11.05
2019-01-17T12:01:43.319Z,12.66
2019-01-17T12:06:52.414Z,12.72
2019-01-17T12:12:01.619Z,11.88
2019-01-17T12:17:10.741Z,10.19
2019-01-17T12:22:19.915Z,12.03
2019-01-17T12:27:29.012Z,9.90
2019-01-17T12:32:38.205Z,9.89
2019-01-17T12:37:47.269Z,8.89
2019-01-17T12:42:56.437Z,9.85
2019-01-17T12:48:05.562Z,9.73
2019-01-17T12:53:14.730Z,11.25
2019-01-17T12:58:23.838Z,4.19
2019-01-17T13:03:33.009Z,4.38
2019-01-17T13:08:42.113Z,8.09
2019-01-17T13:13:51.273Z,6.20
2019-01-17T13:19:00.360Z,6.36
2019-01-17T13:24:09.511Z,6.91
2019-01-17T13:29:18.600Z,6.16
2019-01-17T13:34:27.801Z,6.08
2019-01-17T13:39:36.914Z,8.87
2019-01-17T13:44:46.080Z,4.37
2019-01-17T13:49:55.237Z,3.69
2019-01-17T13:55:04.396Z,4.68
2019-01-17T14:00:13.482Z,3.97
2019-01-17T14:05:22.656Z,2.95
2019-01-17T14:10:31.780Z,7.45
2019-01-17T14:15:41.007Z,3.01
2019-01-17T14:20:50.072Z,4.11
2019-01-17T14:25:59.700Z,6.86
2019-01-17T14:31:08.837Z,4.81
2019-01-17T14:36:18.033Z,7.65
2019-01-17T14:41:27.102Z,10.79
2019-01-17T14:46:36.345Z,7.17
2019-01-17T14:51:45.523Z,7.63
2019-01-17T14:56:54.708Z,5.91
2019-01-17T15:02:03.819Z,3.21
2019-01-17T15:07:13.037Z,3.93
2019-01-17T15:12:22.198Z,7.63
2019-01-17T15:17:31.430Z,4.43
2019-01-17T15:22:40.749Z,4.77
2019-01-17T15:27:49.972Z,10.10
2019-01-17T15:32:59.449Z,5.13
2019-01-17T15:38:08.773Z,5.86
2019-01-17T15:43:17.834Z,4.78
2019-01-17T15:48:27.036Z,6.34
2019-01-17T15:53:36.177Z,6.42
2019-01-17T15:58:45.384Z,6.28
2019-01-17T16:03:54.494Z,4.63
2019-01-17T16:09:03.801Z,6.50
2019-01-17T16:14:12.929Z,6.70
2019-01-17T16:19:22.149Z,7.41
2019-01-17T16:24:31.335Z,8.08
2019-01-17T16:29:40.601Z,5.22
2019-01-17T16:34:50.052Z,2.87
2019-01-17T16:39:59.356Z,2.61
2019-01-17T16:45:08.412Z,2.60
2019-01-17T16:50:17.705Z,3.79
2019-01-17T16:55:26.902Z,6.30
2019-01-17T17:00:36.063Z,4.52
2019-01-17T17:05:45.248Z,4.54
2019-01-17T17:10:54.494Z,4.27
2019-01-17T17:16:03.917Z,4.15
2019-01-17T17:21:13.111Z,5.35
2019-01-17T17:26:22.246Z,8.18
2019-01-17T17:31:31.596Z,5.04
2019-01-17T17:36:40.781Z,6.80
2019-01-17T17:41:50.325Z,5.25
2019-01-17T17:46:59.938Z,3.74
2019-01-17T17:52:09.668Z,4.67
2019-01-17T17:57:19.046Z,3.42
2019-01-17T18:02:28.307Z,3.59
2019-01-17T18:07:37.473Z,2.47
2019-01-17T18:12:46.883Z,3.02
2019-01-17T18:17:56.305Z,3.11
2019-01-17T18:23:05.691Z,3.54
2019-01-17T18:28:14.960Z,2.66
2019-01-17T18:33:24.369Z,2.70
2019-01-17T18:38:33.701Z,3.61
2019-01-17T18:43:43.115Z,3.85
2019-01-17T18:48:52.194Z,3.31
2019-01-17T18:54:01.465Z,4.09
2019-01-17T18:59:10.542Z,4.62
2019-01-17T19:04:19.745Z,4.70
2019-01-17T19:09:28.951Z,4.17
2019-01-17T19:14:38.956Z,4.79
2019-01-17T19:19:47.156Z,3.42
2019-01-17T19:24:56.345Z,4.11
2019-01-17T19:30:05.733Z,3.41
2019-01-17T19:35:14.922Z,3.63
2019-01-17T19:40:24.069Z,13.05
2019-01-17T19:45:33.257Z,5.79
2019-01-17T19:50:42.381Z,6.08
2019-01-17T19:55:51.617Z,7.25
2019-01-17T20:01:00.725Z,6.54
2019-01-17T20:06:09.909Z,10.07
2019-01-17T20:11:19.045Z,8.76
2019-01-17T20:16:28.209Z,9.25
2019-01-17T20:21:37.366Z,9.39
2019-01-17T20:26:46.572Z,11.12
2019-01-17T20:31:55.777Z,6.32
2019-01-17T20:37:05.144Z,4.57
2019-01-17T20:42:14.221Z,5.69
2019-01-17T20:47:23.469Z,5.12
2019-01-17T20:52:32.564Z,4.05
2019-01-17T20:57:41.838Z,5.42
2019-01-17T21:02:50.969Z,5.92
2019-01-17T21:08:00.244Z,4.71
2019-01-17T21:13:09.424Z,5.03
2019-01-17T21:18:18.618Z,7.08
2019-01-17T21:23:27.797Z,6.74
2019-01-17T21:28:37.366Z,7.26
2019-01-17T21:33:46.517Z,5.36
2019-01-17T21:38:55.793Z,5.23
2019-01-17T21:44:04.932Z,4.69
2019-01-17T21:49:14.060Z,5.16
2019-01-17T21:54:21.879Z,5.45
2019-01-17T21:59:31.439Z,4.66
2019-01-17T22:04:40.702Z,4.18
2019-01-17T22:09:49.992Z,3.76
2019-01-17T22:14:59.069Z,4.32
2019-01-17T22:20:08.328Z,4.29
2019-01-17T22:25:17.917Z,4.48
2019-01-17T22:30:27.195Z,6.77
2019-01-17T22:35:36.333Z,4.26
2019-01-17T22:40:45.612Z,5.22
2019-01-17T22:45:54.698Z,4.38
2019-01-17T22:51:03.897Z,4.59
2019-01-17T22:56:12.976Z,4.94
2019-01-17T23:01:22.553Z,4.00
2019-01-17T23:06:31.661Z,4.57
2019-01-17T23:11:41.180Z,5.61
2019-01-17T23:16:50.348Z,4.19
2019-01-17T23:21:59.591Z,4.36
2019-01-17T23:27:08.769Z,5.40
2019-01-17T23:32:18.081Z,3.93
2019-01-17T23:37:27.213Z,3.56
2019-01-17T23:42:36.412Z,4.21
2019-01-17T23:47:45.604Z,4.47
2019-01-17T23:52:54.892Z,5.00
2019-01-17T23:58:04.223Z,3.86
